sensor_id;sensor_type;location;lat;lon;timestamp;P1;durP1;ratioP1;P2;durP2;ratioP2
46897;SDS011;32646;50.958;6.258;2023-02-21T00:01:38;34.10;;;13.40;;
46897;SDS011;32646;50.958;6.258;2023-02-21T00:04:05;37.28;;;14.55;;
46897;SDS011;32646;50.958;6.258;2023-02-21T00:06:31;34.65;;;13.10;;
46897;SDS011;32646;50.958;6.258;2023-02-21T00:08:58;33.20;;;12.27;;
46897;SDS011;32646;50.958;6.258;2023-02-21T00:11:25;37.03;;;13.80;;
46897;SDS011;32646;50.958;6.258;2023-02-21T00:13:51;31.13;;;12.82;;
46897;SDS011;32646;50.958;6.258;2023-02-21T00:16:18;34.25;;;13.07;;
46897;SDS011;32646;50.958;6.258;2023-02-21T00:18:44;33.92;;;13.50;;
46897;SDS011;32646;50.958;6.258;2023-02-21T00:21:11;37.90;;;14.57;;
46897;SDS011;32646;50.958;6.258;2023-02-21T00:23:38;36.60;;;13.30;;
46897;SDS011;32646;50.958;6.258;2023-02-21T00:26:04;40.75;;;15.13;;
46897;SDS011;32646;50.958;6.258;2023-02-21T00:28:31;38.88;;;14.10;;
46897;SDS011;32646;50.958;6.258;2023-02-21T00:30:58;35.42;;;13.82;;
46897;SDS011;32646;50.958;6.258;2023-02-21T00:33:24;40.67;;;15.18;;
46897;SDS011;32646;50.958;6.258;2023-02-21T00:35:51;39.13;;;15.90;;
46897;SDS011;32646;50.958;6.258;2023-02-21T00:38:18;36.88;;;14.60;;
46897;SDS011;32646;50.958;6.258;2023-02-21T00:40:44;44.30;;;15.38;;
46897;SDS011;32646;50.958;6.258;2023-02-21T00:43:11;35.88;;;13.90;;
46897;SDS011;32646;50.958;6.258;2023-02-21T00:45:37;44.58;;;15.90;;
46897;SDS011;32646;50.958;6.258;2023-02-21T00:48:04;39.88;;;15.90;;
46897;SDS011;32646;50.958;6.258;2023-02-21T00:50:31;43.50;;;16.20;;
46897;SDS011;32646;50.958;6.258;2023-02-21T00:52:57;45.50;;;14.68;;
46897;SDS011;32646;50.958;6.258;2023-02-21T00:55:24;42.95;;;14.32;;
46897;SDS011;32646;50.958;6.258;2023-02-21T00:57:50;48.30;;;15.52;;
46897;SDS011;32646;50.958;6.258;2023-02-21T01:00:21;36.22;;;14.57;;
46897;SDS011;32646;50.958;6.258;2023-02-21T01:02:49;38.65;;;13.68;;
46897;SDS011;32646;50.958;6.258;2023-02-21T01:05:15;40.30;;;15.23;;
46897;SDS011;32646;50.958;6.258;2023-02-21T01:07:42;46.03;;;16.38;;
46897;SDS011;32646;50.958;6.258;2023-02-21T01:10:08;41.78;;;14.93;;
46897;SDS011;32646;50.958;6.258;2023-02-21T01:12:35;38.40;;;14.98;;
46897;SDS011;32646;50.958;6.258;2023-02-21T01:15:02;38.15;;;15.13;;
46897;SDS011;32646;50.958;6.258;2023-02-21T01:17:28;37.83;;;14.10;;
46897;SDS011;32646;50.958;6.258;2023-02-21T01:19:55;39.35;;;15.25;;
46897;SDS011;32646;50.958;6.258;2023-02-21T01:22:22;40.35;;;16.08;;
46897;SDS011;32646;50.958;6.258;2023-02-21T01:24:49;42.80;;;15.73;;
46897;SDS011;32646;50.958;6.258;2023-02-21T01:27:16;42.10;;;15.73;;
46897;SDS011;32646;50.958;6.258;2023-02-21T01:29:42;40.38;;;14.10;;
46897;SDS011;32646;50.958;6.258;2023-02-21T01:32:09;40.45;;;14.95;;
46897;SDS011;32646;50.958;6.258;2023-02-21T01:34:36;40.42;;;15.20;;
46897;SDS011;32646;50.958;6.258;2023-02-21T01:37:02;51.00;;;17.30;;
46897;SDS011;32646;50.958;6.258;2023-02-21T01:39:29;38.92;;;15.23;;
46897;SDS011;32646;50.958;6.258;2023-02-21T01:41:55;42.45;;;15.02;;
46897;SDS011;32646;50.958;6.258;2023-02-21T01:44:26;41.05;;;16.30;;
46897;SDS011;32646;50.958;6.258;2023-02-21T01:46:54;47.53;;;17.45;;
46897;SDS011;32646;50.958;6.258;2023-02-21T01:49:20;46.72;;;15.88;;
46897;SDS011;32646;50.958;6.258;2023-02-21T01:51:47;46.72;;;16.13;;
46897;SDS011;32646;50.958;6.258;2023-02-21T01:54:14;41.75;;;16.02;;
46897;SDS011;32646;50.958;6.258;2023-02-21T01:56:42;41.10;;;16.33;;
46897;SDS011;32646;50.958;6.258;2023-02-21T01:59:09;42.80;;;16.38;;
46897;SDS011;32646;50.958;6.258;2023-02-21T02:01:41;43.63;;;15.95;;
46897;SDS011;32646;50.958;6.258;2023-02-21T02:04:27;38.40;;;14.73;;
46897;SDS011;32646;50.958;6.258;2023-02-21T02:06:56;39.20;;;15.43;;
46897;SDS011;32646;50.958;6.258;2023-02-21T02:09:22;39.78;;;16.20;;
46897;SDS011;32646;50.958;6.258;2023-02-21T02:11:56;47.42;;;16.67;;
46897;SDS011;32646;50.958;6.258;2023-02-21T02:14:47;44.13;;;14.63;;
46897;SDS011;32646;50.958;6.258;2023-02-21T02:23:05;43.67;;;13.95;;
46897;SDS011;32646;50.958;6.258;2023-02-21T02:31:50;41.50;;;14.80;;
46897;SDS011;32646;50.958;6.258;2023-02-21T02:39:56;46.22;;;15.73;;
46897;SDS011;32646;50.958;6.258;2023-02-21T02:47:53;49.42;;;16.50;;
46897;SDS011;32646;50.958;6.258;2023-02-21T02:50:24;52.88;;;15.77;;
46897;SDS011;32646;50.958;6.258;2023-02-21T02:52:53;46.20;;;17.55;;
46897;SDS011;32646;50.958;6.258;2023-02-21T02:57:57;48.05;;;16.95;;
46897;SDS011;32646;50.958;6.258;2023-02-21T03:00:25;45.75;;;17.20;;
46897;SDS011;32646;50.958;6.258;2023-02-21T03:02:56;54.05;;;16.55;;
46897;SDS011;32646;50.958;6.258;2023-02-21T03:05:33;49.15;;;15.73;;
46897;SDS011;32646;50.958;6.258;2023-02-21T03:08:26;45.83;;;14.75;;
46897;SDS011;32646;50.958;6.258;2023-02-21T03:11:22;42.90;;;15.00;;
46897;SDS011;32646;50.958;6.258;2023-02-21T03:14:34;47.08;;;16.08;;
46897;SDS011;32646;50.958;6.258;2023-02-21T03:16:43;43.80;;;14.18;;
46897;SDS011;32646;50.958;6.258;2023-02-21T03:19:20;47.97;;;15.95;;
46897;SDS011;32646;50.958;6.258;2023-02-21T03:21:55;51.80;;;16.15;;
46897;SDS011;32646;50.958;6.258;2023-02-21T03:24:25;48.58;;;14.93;;
46897;SDS011;32646;50.958;6.258;2023-02-21T03:26:55;49.05;;;14.57;;
46897;SDS011;32646;50.958;6.258;2023-02-21T03:29:25;48.25;;;16.05;;
46897;SDS011;32646;50.958;6.258;2023-02-21T03:31:54;54.78;;;16.98;;
46897;SDS011;32646;50.958;6.258;2023-02-21T03:34:23;51.78;;;16.15;;
46897;SDS011;32646;50.958;6.258;2023-02-21T03:36:50;50.58;;;17.02;;
46897;SDS011;32646;50.958;6.258;2023-02-21T03:39:17;47.17;;;15.38;;
46897;SDS011;32646;50.958;6.258;2023-02-21T03:41:43;52.60;;;14.98;;
46897;SDS011;32646;50.958;6.258;2023-02-21T03:44:10;53.03;;;15.75;;
46897;SDS011;32646;50.958;6.258;2023-02-21T03:46:36;49.55;;;16.27;;
46897;SDS011;32646;50.958;6.258;2023-02-21T03:49:06;44.67;;;14.88;;
46897;SDS011;32646;50.958;6.258;2023-02-21T03:51:32;56.67;;;16.60;;
46897;SDS011;32646;50.958;6.258;2023-02-21T03:53:58;47.70;;;16.25;;
46897;SDS011;32646;50.958;6.258;2023-02-21T03:56:25;39.85;;;12.45;;
46897;SDS011;32646;50.958;6.258;2023-02-21T03:59:05;59.83;;;16.35;;
46897;SDS011;32646;50.958;6.258;2023-02-21T04:01:32;45.35;;;14.70;;
46897;SDS011;32646;50.958;6.258;2023-02-21T04:03:58;56.65;;;16.73;;
46897;SDS011;32646;50.958;6.258;2023-02-21T04:06:25;47.00;;;15.70;;
46897;SDS011;32646;50.958;6.258;2023-02-21T04:08:51;52.20;;;14.77;;
46897;SDS011;32646;50.958;6.258;2023-02-21T04:11:19;54.58;;;16.73;;
46897;SDS011;32646;50.958;6.258;2023-02-21T04:13:46;49.00;;;16.67;;
46897;SDS011;32646;50.958;6.258;2023-02-21T04:16:13;46.67;;;16.20;;
46897;SDS011;32646;50.958;6.258;2023-02-21T04:18:39;40.30;;;14.13;;
46897;SDS011;32646;50.958;6.258;2023-02-21T04:21:06;55.97;;;15.93;;
46897;SDS011;32646;50.958;6.258;2023-02-21T04:23:32;48.22;;;15.40;;
46897;SDS011;32646;50.958;6.258;2023-02-21T04:25:59;53.05;;;17.17;;
46897;SDS011;32646;50.958;6.258;2023-02-21T04:28:25;50.65;;;16.35;;
46897;SDS011;32646;50.958;6.258;2023-02-21T04:30:52;48.35;;;16.02;;
46897;SDS011;32646;50.958;6.258;2023-02-21T04:33:18;44.90;;;16.38;;
46897;SDS011;32646;50.958;6.258;2023-02-21T04:35:45;54.65;;;16.52;;
46897;SDS011;32646;50.958;6.258;2023-02-21T04:38:11;46.60;;;14.95;;
46897;SDS011;32646;50.958;6.258;2023-02-21T04:40:38;51.25;;;15.27;;
46897;SDS011;32646;50.958;6.258;2023-02-21T04:43:05;48.22;;;14.98;;
46897;SDS011;32646;50.958;6.258;2023-02-21T04:45:31;52.22;;;15.88;;
46897;SDS011;32646;50.958;6.258;2023-02-21T04:47:58;49.90;;;16.20;;
46897;SDS011;32646;50.958;6.258;2023-02-21T04:50:24;60.90;;;16.73;;
46897;SDS011;32646;50.958;6.258;2023-02-21T04:52:51;56.10;;;16.98;;
46897;SDS011;32646;50.958;6.258;2023-02-21T04:55:17;51.35;;;16.58;;
46897;SDS011;32646;50.958;6.258;2023-02-21T04:57:44;55.70;;;16.98;;
46897;SDS011;32646;50.958;6.258;2023-02-21T05:00:11;47.80;;;15.35;;
46897;SDS011;32646;50.958;6.258;2023-02-21T05:02:41;53.88;;;16.88;;
46897;SDS011;32646;50.958;6.258;2023-02-21T05:07:35;41.63;;;13.48;;
46897;SDS011;32646;50.958;6.258;2023-02-21T05:10:02;57.28;;;17.35;;
46897;SDS011;32646;50.958;6.258;2023-02-21T05:12:29;51.92;;;16.33;;
46897;SDS011;32646;50.958;6.258;2023-02-21T12:10:39;38.78;;;15.35;;
46897;SDS011;32646;50.958;6.258;2023-02-21T12:18:36;39.28;;;15.38;;
46897;SDS011;32646;50.958;6.258;2023-02-21T12:32:33;35.45;;;13.32;;
46897;SDS011;32646;50.958;6.258;2023-02-21T12:38:04;29.88;;;12.75;;
46897;SDS011;32646;50.958;6.258;2023-02-21T12:51:02;31.42;;;12.90;;
46897;SDS011;32646;50.958;6.258;2023-02-21T12:59:12;28.08;;;12.25;;
46897;SDS011;32646;50.958;6.258;2023-02-21T13:01:52;28.30;;;11.07;;
46897;SDS011;32646;50.958;6.258;2023-02-21T13:04:27;28.90;;;13.02;;
46897;SDS011;32646;50.958;6.258;2023-02-21T13:07:04;24.63;;;11.73;;
46897;SDS011;32646;50.958;6.258;2023-02-21T13:13:13;30.00;;;12.90;;
46897;SDS011;32646;50.958;6.258;2023-02-21T13:15:54;28.38;;;12.43;;
46897;SDS011;32646;50.958;6.258;2023-02-21T13:23:44;28.10;;;10.90;;
46897;SDS011;32646;50.958;6.258;2023-02-21T13:29:33;26.70;;;11.45;;
46897;SDS011;32646;50.958;6.258;2023-02-21T13:32:10;25.30;;;11.45;;
46897;SDS011;32646;50.958;6.258;2023-02-21T13:34:40;26.80;;;12.30;;
46897;SDS011;32646;50.958;6.258;2023-02-21T13:37:19;24.33;;;9.68;;
46897;SDS011;32646;50.958;6.258;2023-02-21T13:39:50;25.33;;;11.07;;
46897;SDS011;32646;50.958;6.258;2023-02-21T13:42:41;25.45;;;11.10;;
46897;SDS011;32646;50.958;6.258;2023-02-21T13:45:18;27.90;;;11.20;;
46897;SDS011;32646;50.958;6.258;2023-02-21T13:58:35;25.85;;;11.27;;
46897;SDS011;32646;50.958;6.258;2023-02-21T14:03:56;22.42;;;10.23;;
46897;SDS011;32646;50.958;6.258;2023-02-21T14:09:10;25.77;;;11.23;;
46897;SDS011;32646;50.958;6.258;2023-02-21T14:11:46;25.15;;;11.73;;
46897;SDS011;32646;50.958;6.258;2023-02-21T14:14:20;23.13;;;10.93;;
46897;SDS011;32646;50.958;6.258;2023-02-21T14:19:25;24.83;;;11.20;;
46897;SDS011;32646;50.958;6.258;2023-02-21T14:21:59;25.17;;;11.82;;
46897;SDS011;32646;50.958;6.258;2023-02-21T14:24:29;25.60;;;11.82;;
46897;SDS011;32646;50.958;6.258;2023-02-21T14:27:42;25.70;;;11.90;;
46897;SDS011;32646;50.958;6.258;2023-02-21T14:34:55;30.13;;;12.52;;
46897;SDS011;32646;50.958;6.258;2023-02-21T14:40:17;44.70;;;19.90;;
46897;SDS011;32646;50.958;6.258;2023-02-21T14:54:17;31.15;;;15.15;;
46897;SDS011;32646;50.958;6.258;2023-02-21T15:00:52;27.50;;;12.70;;
46897;SDS011;32646;50.958;6.258;2023-02-21T15:06:34;30.75;;;12.50;;
46897;SDS011;32646;50.958;6.258;2023-02-21T15:09:10;29.98;;;11.35;;
46897;SDS011;32646;50.958;6.258;2023-02-21T15:11:43;27.55;;;11.77;;
46897;SDS011;32646;50.958;6.258;2023-02-21T15:16:42;41.17;;;16.00;;
46897;SDS011;32646;50.958;6.258;2023-02-21T15:19:21;32.35;;;12.60;;
46897;SDS011;32646;50.958;6.258;2023-02-21T15:27:35;30.60;;;11.82;;
46897;SDS011;32646;50.958;6.258;2023-02-21T15:30:04;32.30;;;15.48;;
46897;SDS011;32646;50.958;6.258;2023-02-21T15:32:59;33.97;;;14.63;;
46897;SDS011;32646;50.958;6.258;2023-02-21T15:35:32;27.83;;;11.18;;
46897;SDS011;32646;50.958;6.258;2023-02-21T15:38:06;31.35;;;12.82;;
46897;SDS011;32646;50.958;6.258;2023-02-21T15:40:48;41.60;;;23.25;;
46897;SDS011;32646;50.958;6.258;2023-02-21T15:43:39;43.92;;;21.20;;
46897;SDS011;32646;50.958;6.258;2023-02-21T15:46:22;27.63;;;11.63;;
46897;SDS011;32646;50.958;6.258;2023-02-21T15:48:54;31.38;;;12.98;;
46897;SDS011;32646;50.958;6.258;2023-02-21T15:51:25;32.58;;;13.15;;
46897;SDS011;32646;50.958;6.258;2023-02-21T15:56:43;30.10;;;13.23;;
46897;SDS011;32646;50.958;6.258;2023-02-21T16:01:44;32.75;;;12.77;;
46897;SDS011;32646;50.958;6.258;2023-02-21T16:04:34;32.92;;;12.13;;
46897;SDS011;32646;50.958;6.258;2023-02-21T16:07:02;27.48;;;12.25;;
46897;SDS011;32646;50.958;6.258;2023-02-21T16:09:32;32.10;;;11.43;;
46897;SDS011;32646;50.958;6.258;2023-02-21T16:12:04;30.58;;;12.73;;
46897;SDS011;32646;50.958;6.258;2023-02-21T16:15:06;31.13;;;12.45;;
46897;SDS011;32646;50.958;6.258;2023-02-21T16:17:31;32.30;;;11.18;;
46897;SDS011;32646;50.958;6.258;2023-02-21T16:20:02;26.90;;;10.98;;
46897;SDS011;32646;50.958;6.258;2023-02-21T16:22:43;26.55;;;10.77;;
46897;SDS011;32646;50.958;6.258;2023-02-21T16:25:33;30.20;;;11.77;;
46897;SDS011;32646;50.958;6.258;2023-02-21T16:28:00;25.83;;;11.02;;
46897;SDS011;32646;50.958;6.258;2023-02-21T16:30:28;28.90;;;11.27;;
46897;SDS011;32646;50.958;6.258;2023-02-21T16:33:01;26.98;;;12.05;;
46897;SDS011;32646;50.958;6.258;2023-02-21T16:35:29;27.60;;;11.52;;
46897;SDS011;32646;50.958;6.258;2023-02-21T16:37:57;31.58;;;13.00;;
46897;SDS011;32646;50.958;6.258;2023-02-21T16:40:26;28.95;;;12.18;;
46897;SDS011;32646;50.958;6.258;2023-02-21T16:43:02;34.45;;;13.02;;
46897;SDS011;32646;50.958;6.258;2023-02-21T16:45:30;30.80;;;13.68;;
46897;SDS011;32646;50.958;6.258;2023-02-21T16:48:01;36.30;;;13.77;;
46897;SDS011;32646;50.958;6.258;2023-02-21T16:50:33;31.98;;;13.13;;
46897;SDS011;32646;50.958;6.258;2023-02-21T16:53:04;29.45;;;12.10;;
46897;SDS011;32646;50.958;6.258;2023-02-21T16:55:31;26.55;;;13.38;;
46897;SDS011;32646;50.958;6.258;2023-02-21T16:57:58;29.27;;;12.02;;
46897;SDS011;32646;50.958;6.258;2023-02-21T17:03:06;34.15;;;14.15;;
46897;SDS011;32646;50.958;6.258;2023-02-21T17:05:34;32.17;;;13.98;;
46897;SDS011;32646;50.958;6.258;2023-02-21T17:08:00;34.13;;;12.50;;
46897;SDS011;32646;50.958;6.258;2023-02-21T17:10:28;35.05;;;15.93;;
46897;SDS011;32646;50.958;6.258;2023-02-21T17:12:54;29.77;;;13.02;;
46897;SDS011;32646;50.958;6.258;2023-02-21T17:15:21;31.40;;;12.75;;
46897;SDS011;32646;50.958;6.258;2023-02-21T17:17:47;27.33;;;12.55;;
46897;SDS011;32646;50.958;6.258;2023-02-21T17:20:19;32.38;;;13.40;;
46897;SDS011;32646;50.958;6.258;2023-02-21T17:22:46;27.70;;;11.52;;
46897;SDS011;32646;50.958;6.258;2023-02-21T17:25:12;26.65;;;12.13;;
46897;SDS011;32646;50.958;6.258;2023-02-21T17:27:40;26.88;;;10.52;;
46897;SDS011;32646;50.958;6.258;2023-02-21T17:30:06;31.48;;;11.35;;
46897;SDS011;32646;50.958;6.258;2023-02-21T17:32:35;24.75;;;10.52;;
46897;SDS011;32646;50.958;6.258;2023-02-21T17:35:01;28.42;;;12.25;;
46897;SDS011;32646;50.958;6.258;2023-02-21T17:37:28;29.75;;;12.27;;
46897;SDS011;32646;50.958;6.258;2023-02-21T17:39:55;30.73;;;11.88;;
46897;SDS011;32646;50.958;6.258;2023-02-21T17:42:22;28.20;;;12.55;;
46897;SDS011;32646;50.958;6.258;2023-02-21T17:44:50;32.80;;;13.43;;
46897;SDS011;32646;50.958;6.258;2023-02-21T17:47:17;37.38;;;14.13;;
46897;SDS011;32646;50.958;6.258;2023-02-21T17:49:46;30.08;;;11.90;;
46897;SDS011;32646;50.958;6.258;2023-02-21T17:52:14;32.30;;;12.93;;
46897;SDS011;32646;50.958;6.258;2023-02-21T17:54:41;36.38;;;13.52;;
46897;SDS011;32646;50.958;6.258;2023-02-21T17:57:08;30.52;;;12.13;;
46897;SDS011;32646;50.958;6.258;2023-02-21T17:59:35;31.80;;;12.02;;
46897;SDS011;32646;50.958;6.258;2023-02-21T18:02:03;31.52;;;12.48;;
46897;SDS011;32646;50.958;6.258;2023-02-21T18:04:31;32.88;;;14.25;;
46897;SDS011;32646;50.958;6.258;2023-02-21T18:06:57;30.33;;;12.98;;
46897;SDS011;32646;50.958;6.258;2023-02-21T18:09:24;38.08;;;14.00;;
46897;SDS011;32646;50.958;6.258;2023-02-21T18:11:51;32.58;;;13.02;;
46897;SDS011;32646;50.958;6.258;2023-02-21T18:14:21;34.17;;;14.18;;
46897;SDS011;32646;50.958;6.258;2023-02-21T18:16:48;31.90;;;12.32;;
46897;SDS011;32646;50.958;6.258;2023-02-21T18:19:15;30.40;;;11.13;;
46897;SDS011;32646;50.958;6.258;2023-02-21T18:21:44;36.55;;;13.88;;
46897;SDS011;32646;50.958;6.258;2023-02-21T18:24:11;34.58;;;12.68;;
46897;SDS011;32646;50.958;6.258;2023-02-21T18:26:38;38.20;;;15.32;;
46897;SDS011;32646;50.958;6.258;2023-02-21T18:29:06;32.88;;;13.02;;
46897;SDS011;32646;50.958;6.258;2023-02-21T18:31:33;31.88;;;12.88;;
46897;SDS011;32646;50.958;6.258;2023-02-21T18:34:01;39.80;;;13.88;;
46897;SDS011;32646;50.958;6.258;2023-02-21T18:36:28;37.92;;;13.18;;
46897;SDS011;32646;50.958;6.258;2023-02-21T18:38:55;33.78;;;12.27;;
46897;SDS011;32646;50.958;6.258;2023-02-21T18:41:24;33.78;;;12.95;;
46897;SDS011;32646;50.958;6.258;2023-02-21T18:43:51;31.05;;;13.02;;
46897;SDS011;32646;50.958;6.258;2023-02-21T18:46:18;34.35;;;14.38;;
46897;SDS011;32646;50.958;6.258;2023-02-21T18:48:47;34.08;;;14.70;;
46897;SDS011;32646;50.958;6.258;2023-02-21T18:51:15;38.53;;;14.52;;
46897;SDS011;32646;50.958;6.258;2023-02-21T18:53:43;32.67;;;13.60;;
46897;SDS011;32646;50.958;6.258;2023-02-21T18:56:11;30.45;;;12.57;;
46897;SDS011;32646;50.958;6.258;2023-02-21T18:58:39;36.97;;;14.32;;
46897;SDS011;32646;50.958;6.258;2023-02-21T19:01:06;35.70;;;13.55;;
46897;SDS011;32646;50.958;6.258;2023-02-21T19:03:33;33.53;;;13.80;;
46897;SDS011;32646;50.958;6.258;2023-02-21T19:06:00;32.53;;;14.15;;
46897;SDS011;32646;50.958;6.258;2023-02-21T19:08:27;39.33;;;14.65;;
46897;SDS011;32646;50.958;6.258;2023-02-21T19:10:53;35.85;;;14.55;;
46897;SDS011;32646;50.958;6.258;2023-02-21T19:13:20;33.85;;;13.27;;
46897;SDS011;32646;50.958;6.258;2023-02-21T19:15:46;44.58;;;15.50;;
46897;SDS011;32646;50.958;6.258;2023-02-21T19:18:13;44.67;;;16.63;;
46897;SDS011;32646;50.958;6.258;2023-02-21T19:20:39;40.75;;;15.52;;
46897;SDS011;32646;50.958;6.258;2023-02-21T19:23:06;36.28;;;14.10;;
46897;SDS011;32646;50.958;6.258;2023-02-21T19:25:33;36.75;;;14.52;;
46897;SDS011;32646;50.958;6.258;2023-02-21T19:27:59;30.95;;;13.43;;
46897;SDS011;32646;50.958;6.258;2023-02-21T19:30:27;31.17;;;14.05;;
46897;SDS011;32646;50.958;6.258;2023-02-21T19:32:58;33.95;;;13.40;;
46897;SDS011;32646;50.958;6.258;2023-02-21T19:35:27;39.28;;;15.88;;
46897;SDS011;32646;50.958;6.258;2023-02-21T19:37:56;35.88;;;13.40;;
46897;SDS011;32646;50.958;6.258;2023-02-21T19:40:23;36.70;;;14.65;;
46897;SDS011;32646;50.958;6.258;2023-02-21T19:42:50;39.03;;;15.82;;
46897;SDS011;32646;50.958;6.258;2023-02-21T19:45:17;37.47;;;14.70;;
46897;SDS011;32646;50.958;6.258;2023-02-21T19:47:44;37.90;;;15.93;;
46897;SDS011;32646;50.958;6.258;2023-02-21T19:50:11;39.22;;;15.68;;
46897;SDS011;32646;50.958;6.258;2023-02-21T19:52:38;41.50;;;15.18;;
46897;SDS011;32646;50.958;6.258;2023-02-21T19:55:05;43.25;;;15.88;;
46897;SDS011;32646;50.958;6.258;2023-02-21T19:57:32;37.33;;;14.55;;
46897;SDS011;32646;50.958;6.258;2023-02-21T19:59:59;41.40;;;16.55;;
46897;SDS011;32646;50.958;6.258;2023-02-21T20:02:26;42.13;;;15.57;;
46897;SDS011;32646;50.958;6.258;2023-02-21T20:04:54;43.20;;;16.20;;
46897;SDS011;32646;50.958;6.258;2023-02-21T20:07:20;37.15;;;14.30;;
46897;SDS011;32646;50.958;6.258;2023-02-21T20:09:47;50.10;;;16.85;;
46897;SDS011;32646;50.958;6.258;2023-02-21T20:12:14;44.58;;;17.27;;
46897;SDS011;32646;50.958;6.258;2023-02-21T20:14:41;40.97;;;16.30;;
46897;SDS011;32646;50.958;6.258;2023-02-21T20:17:07;49.90;;;17.50;;
46897;SDS011;32646;50.958;6.258;2023-02-21T20:19:37;52.88;;;17.90;;
46897;SDS011;32646;50.958;6.258;2023-02-21T20:22:04;53.72;;;17.85;;
46897;SDS011;32646;50.958;6.258;2023-02-21T20:24:30;53.33;;;18.67;;
46897;SDS011;32646;50.958;6.258;2023-02-21T20:26:57;57.65;;;19.17;;
46897;SDS011;32646;50.958;6.258;2023-02-21T20:29:24;53.35;;;19.27;;
46897;SDS011;32646;50.958;6.258;2023-02-21T20:31:51;58.92;;;19.83;;
46897;SDS011;32646;50.958;6.258;2023-02-21T20:34:18;60.88;;;20.65;;
46897;SDS011;32646;50.958;6.258;2023-02-21T20:36:46;59.10;;;19.25;;
46897;SDS011;32646;50.958;6.258;2023-02-21T20:39:23;59.67;;;18.48;;
46897;SDS011;32646;50.958;6.258;2023-02-21T20:41:56;51.28;;;17.42;;
46897;SDS011;32646;50.958;6.258;2023-02-21T20:44:27;57.80;;;20.27;;
46897;SDS011;32646;50.958;6.258;2023-02-21T20:46:58;62.22;;;20.17;;
46897;SDS011;32646;50.958;6.258;2023-02-21T20:49:25;51.83;;;17.67;;
46897;SDS011;32646;50.958;6.258;2023-02-21T20:51:52;58.40;;;18.52;;
46897;SDS011;32646;50.958;6.258;2023-02-21T20:54:19;53.45;;;18.15;;
46897;SDS011;32646;50.958;6.258;2023-02-21T20:56:47;54.90;;;18.67;;
46897;SDS011;32646;50.958;6.258;2023-02-21T20:59:17;60.35;;;20.70;;
46897;SDS011;32646;50.958;6.258;2023-02-21T21:01:46;60.78;;;17.85;;
46897;SDS011;32646;50.958;6.258;2023-02-21T21:04:17;66.18;;;19.17;;
46897;SDS011;32646;50.958;6.258;2023-02-21T21:06:46;56.90;;;18.42;;
46897;SDS011;32646;50.958;6.258;2023-02-21T21:09:13;59.35;;;20.20;;
46897;SDS011;32646;50.958;6.258;2023-02-21T21:11:41;66.20;;;20.00;;
46897;SDS011;32646;50.958;6.258;2023-02-21T21:14:07;73.63;;;20.88;;
46897;SDS011;32646;50.958;6.258;2023-02-21T21:16:34;66.03;;;19.15;;
46897;SDS011;32646;50.958;6.258;2023-02-21T21:19:01;58.55;;;18.30;;
46897;SDS011;32646;50.958;6.258;2023-02-21T21:21:29;63.80;;;20.33;;
46897;SDS011;32646;50.958;6.258;2023-02-21T21:23:57;70.80;;;21.23;;
46897;SDS011;32646;50.958;6.258;2023-02-21T21:26:24;56.75;;;19.13;;
46897;SDS011;32646;50.958;6.258;2023-02-21T21:28:51;69.13;;;21.40;;
46897;SDS011;32646;50.958;6.258;2023-02-21T21:31:19;73.65;;;20.63;;
46897;SDS011;32646;50.958;6.258;2023-02-21T21:33:46;59.60;;;16.90;;
46897;SDS011;32646;50.958;6.258;2023-02-21T21:36:12;63.92;;;19.30;;
46897;SDS011;32646;50.958;6.258;2023-02-21T21:38:39;61.20;;;19.95;;
46897;SDS011;32646;50.958;6.258;2023-02-21T21:41:06;72.35;;;20.00;;
46897;SDS011;32646;50.958;6.258;2023-02-21T21:43:37;68.65;;;19.20;;
46897;SDS011;32646;50.958;6.258;2023-02-21T21:46:07;64.90;;;20.70;;
46897;SDS011;32646;50.958;6.258;2023-02-21T21:48:42;64.10;;;18.75;;
46897;SDS011;32646;50.958;6.258;2023-02-21T21:51:09;77.30;;;20.50;;
46897;SDS011;32646;50.958;6.258;2023-02-21T21:53:36;73.72;;;18.85;;
46897;SDS011;32646;50.958;6.258;2023-02-21T21:56:03;76.30;;;21.70;;
46897;SDS011;32646;50.958;6.258;2023-02-21T21:58:31;80.22;;;21.63;;
46897;SDS011;32646;50.958;6.258;2023-02-21T22:01:00;76.85;;;20.25;;
46897;SDS011;32646;50.958;6.258;2023-02-21T22:03:27;92.00;;;22.05;;
46897;SDS011;32646;50.958;6.258;2023-02-21T22:05:54;104.95;;;25.67;;
46897;SDS011;32646;50.958;6.258;2023-02-21T22:08:24;70.65;;;19.48;;
46897;SDS011;32646;50.958;6.258;2023-02-21T22:10:51;93.38;;;21.10;;
46897;SDS011;32646;50.958;6.258;2023-02-21T22:13:18;105.20;;;24.08;;
46897;SDS011;32646;50.958;6.258;2023-02-21T22:15:45;85.47;;;21.50;;
46897;SDS011;32646;50.958;6.258;2023-02-21T22:18:15;122.38;;;21.92;;
46897;SDS011;32646;50.958;6.258;2023-02-21T22:20:43;88.43;;;19.88;;
46897;SDS011;32646;50.958;6.258;2023-02-21T22:23:10;95.28;;;19.90;;
46897;SDS011;32646;50.958;6.258;2023-02-21T22:25:36;97.63;;;22.13;;
46897;SDS011;32646;50.958;6.258;2023-02-21T22:28:04;105.05;;;21.92;;
46897;SDS011;32646;50.958;6.258;2023-02-21T22:30:32;103.85;;;21.05;;
46897;SDS011;32646;50.958;6.258;2023-02-21T22:32:59;78.78;;;16.70;;
46897;SDS011;32646;50.958;6.258;2023-02-21T22:35:25;96.72;;;21.75;;
46897;SDS011;32646;50.958;6.258;2023-02-21T22:37:53;105.85;;;21.23;;
46897;SDS011;32646;50.958;6.258;2023-02-21T22:40:22;102.97;;;21.73;;
46897;SDS011;32646;50.958;6.258;2023-02-21T22:42:54;103.20;;;20.27;;
46897;SDS011;32646;50.958;6.258;2023-02-21T22:45:22;86.32;;;19.13;;
46897;SDS011;32646;50.958;6.258;2023-02-21T22:47:49;112.95;;;21.42;;
46897;SDS011;32646;50.958;6.258;2023-02-21T22:50:18;119.85;;;20.50;;
46897;SDS011;32646;50.958;6.258;2023-02-21T22:52:53;102.68;;;22.27;;
46897;SDS011;32646;50.958;6.258;2023-02-21T22:55:25;85.43;;;15.65;;
46897;SDS011;32646;50.958;6.258;2023-02-21T22:57:53;68.88;;;17.48;;
46897;SDS011;32646;50.958;6.258;2023-02-21T23:00:24;98.60;;;19.92;;
46897;SDS011;32646;50.958;6.258;2023-02-21T23:05:20;65.97;;;16.58;;
46897;SDS011;32646;50.958;6.258;2023-02-21T23:07:48;87.13;;;18.08;;
46897;SDS011;32646;50.958;6.258;2023-02-21T23:10:16;73.53;;;17.92;;
46897;SDS011;32646;50.958;6.258;2023-02-21T23:12:45;62.83;;;17.88;;
46897;SDS011;32646;50.958;6.258;2023-02-21T23:15:11;102.72;;;21.23;;
46897;SDS011;32646;50.958;6.258;2023-02-21T23:17:38;84.90;;;19.02;;
46897;SDS011;32646;50.958;6.258;2023-02-21T23:20:05;108.75;;;21.85;;
46897;SDS011;32646;50.958;6.258;2023-02-21T23:22:32;99.85;;;20.40;;
46897;SDS011;32646;50.958;6.258;2023-02-21T23:24:59;115.00;;;20.58;;
46897;SDS011;32646;50.958;6.258;2023-02-21T23:27:25;127.93;;;22.92;;
46897;SDS011;32646;50.958;6.258;2023-02-21T23:29:52;106.05;;;22.67;;
46897;SDS011;32646;50.958;6.258;2023-02-21T23:32:18;104.90;;;21.48;;
46897;SDS011;32646;50.958;6.258;2023-02-21T23:34:45;95.00;;;19.83;;
46897;SDS011;32646;50.958;6.258;2023-02-21T23:37:11;99.70;;;19.58;;
46897;SDS011;32646;50.958;6.258;2023-02-21T23:39:38;107.28;;;23.25;;
46897;SDS011;32646;50.958;6.258;2023-02-21T23:42:05;88.28;;;19.75;;
46897;SDS011;32646;50.958;6.258;2023-02-21T23:44:32;110.28;;;19.27;;
46897;SDS011;32646;50.958;6.258;2023-02-21T23:46:58;88.60;;;20.45;;
46897;SDS011;32646;50.958;6.258;2023-02-21T23:49:25;106.15;;;20.80;;